sensor_id;sensor_type;location;lat;lon;timestamp;temperature;humidity
9389;DHT22;4734;52.778;6.798;2023-05-10T00:01:44;15.10;99.90
9389;DHT22;4734;52.778;6.798;2023-05-10T00:04:29;15.10;99.90
9389;DHT22;4734;52.778;6.798;2023-05-10T00:07:15;15.10;99.90
9389;DHT22;4734;52.778;6.798;2023-05-10T00:10:01;15.10;99.90
9389;DHT22;4734;52.778;6.798;2023-05-10T00:12:46;15.10;99.90
9389;DHT22;4734;52.778;6.798;2023-05-10T00:15:32;15.10;99.90
9389;DHT22;4734;52.778;6.798;2023-05-10T00:18:20;15.00;99.90
9389;DHT22;4734;52.778;6.798;2023-05-10T00:21:06;15.00;99.90
9389;DHT22;4734;52.778;6.798;2023-05-10T00:23:51;15.00;99.90
9389;DHT22;4734;52.778;6.798;2023-05-10T00:26:36;15.00;99.90
9389;DHT22;4734;52.778;6.798;2023-05-10T00:29:22;14.90;99.90
9389;DHT22;4734;52.778;6.798;2023-05-10T00:34:54;14.90;99.90
9389;DHT22;4734;52.778;6.798;2023-05-10T00:37:40;14.90;99.90
9389;DHT22;4734;52.778;6.798;2023-05-10T00:40:26;14.90;99.90
9389;DHT22;4734;52.778;6.798;2023-05-10T00:43:12;14.90;99.90
9389;DHT22;4734;52.778;6.798;2023-05-10T00:45:57;14.90;99.90
9389;DHT22;4734;52.778;6.798;2023-05-10T00:48:43;14.80;99.90
9389;DHT22;4734;52.778;6.798;2023-05-10T00:51:31;14.80;99.90
9389;DHT22;4734;52.778;6.798;2023-05-10T00:54:17;14.80;99.90
9389;DHT22;4734;52.778;6.798;2023-05-10T00:57:02;14.80;99.90
9389;DHT22;4734;52.778;6.798;2023-05-10T00:59:48;14.80;99.90
9389;DHT22;4734;52.778;6.798;2023-05-10T01:02:33;14.80;99.90
9389;DHT22;4734;52.778;6.798;2023-05-10T01:05:19;14.70;99.90
9389;DHT22;4734;52.778;6.798;2023-05-10T01:08:06;14.70;99.90
9389;DHT22;4734;52.778;6.798;2023-05-10T01:10:52;14.70;99.90
9389;DHT22;4734;52.778;6.798;2023-05-10T01:13:41;14.70;99.90
9389;DHT22;4734;52.778;6.798;2023-05-10T01:16:27;14.70;99.90
9389;DHT22;4734;52.778;6.798;2023-05-10T01:19:18;14.70;99.90
9389;DHT22;4734;52.778;6.798;2023-05-10T01:22:09;14.60;99.90
9389;DHT22;4734;52.778;6.798;2023-05-10T01:25:31;14.60;99.90
9389;DHT22;4734;52.778;6.798;2023-05-10T01:32:15;14.60;99.90
9389;DHT22;4734;52.778;6.798;2023-05-10T01:35:03;14.60;99.90
9389;DHT22;4734;52.778;6.798;2023-05-10T01:37:58;14.50;99.90
9389;DHT22;4734;52.778;6.798;2023-05-10T01:40:52;14.50;99.90
9389;DHT22;4734;52.778;6.798;2023-05-10T01:43:46;14.50;99.90
9389;DHT22;4734;52.778;6.798;2023-05-10T01:46:36;14.50;99.90
9389;DHT22;4734;52.778;6.798;2023-05-10T01:49:26;14.50;99.90
9389;DHT22;4734;52.778;6.798;2023-05-10T01:52:14;14.40;99.90
9389;DHT22;4734;52.778;6.798;2023-05-10T01:55:02;14.40;99.90
9389;DHT22;4734;52.778;6.798;2023-05-10T01:57:56;14.50;99.90
9389;DHT22;4734;52.778;6.798;2023-05-10T02:00:45;14.40;99.90
9389;DHT22;4734;52.778;6.798;2023-05-10T02:03:33;14.40;99.90
9389;DHT22;4734;52.778;6.798;2023-05-10T02:06:22;14.40;99.90
9389;DHT22;4734;52.778;6.798;2023-05-10T02:09:10;14.40;99.90
9389;DHT22;4734;52.778;6.798;2023-05-10T02:11:58;14.40;99.90
9389;DHT22;4734;52.778;6.798;2023-05-10T02:14:45;14.40;99.90
9389;DHT22;4734;52.778;6.798;2023-05-10T02:17:32;14.40;99.90
9389;DHT22;4734;52.778;6.798;2023-05-10T02:20:19;14.30;99.90
9389;DHT22;4734;52.778;6.798;2023-05-10T02:23:07;14.40;99.90
9389;DHT22;4734;52.778;6.798;2023-05-10T02:25:55;14.30;99.90
9389;DHT22;4734;52.778;6.798;2023-05-10T02:28:42;14.30;99.90
9389;DHT22;4734;52.778;6.798;2023-05-10T02:31:28;14.30;99.90
9389;DHT22;4734;52.778;6.798;2023-05-10T02:34:14;14.30;99.90
9389;DHT22;4734;52.778;6.798;2023-05-10T02:37:00;14.30;99.90
9389;DHT22;4734;52.778;6.798;2023-05-10T02:39:49;14.30;99.90
9389;DHT22;4734;52.778;6.798;2023-05-10T02:42:37;14.30;99.90
9389;DHT22;4734;52.778;6.798;2023-05-10T02:45:25;14.30;99.90
9389;DHT22;4734;52.778;6.798;2023-05-10T02:48:12;14.20;99.90
9389;DHT22;4734;52.778;6.798;2023-05-10T02:51:02;14.20;99.90
9389;DHT22;4734;52.778;6.798;2023-05-10T02:53:50;14.20;99.90
9389;DHT22;4734;52.778;6.798;2023-05-10T02:56:43;14.20;99.90
9389;DHT22;4734;52.778;6.798;2023-05-10T02:59:29;14.20;99.90
9389;DHT22;4734;52.778;6.798;2023-05-10T03:02:15;14.20;99.90
9389;DHT22;4734;52.778;6.798;2023-05-10T03:05:00;14.20;99.90
9389;DHT22;4734;52.778;6.798;2023-05-10T03:07:47;14.20;99.90
9389;DHT22;4734;52.778;6.798;2023-05-10T03:10:40;14.10;99.90
9389;DHT22;4734;52.778;6.798;2023-05-10T03:13:31;14.10;99.90
9389;DHT22;4734;52.778;6.798;2023-05-10T03:16:25;14.10;99.90
9389;DHT22;4734;52.778;6.798;2023-05-10T03:19:16;14.10;99.90
9389;DHT22;4734;52.778;6.798;2023-05-10T03:22:08;14.10;99.90
9389;DHT22;4734;52.778;6.798;2023-05-10T03:24:56;14.10;99.90
9389;DHT22;4734;52.778;6.798;2023-05-10T03:27:43;14.10;99.90
9389;DHT22;4734;52.778;6.798;2023-05-10T03:30:31;14.10;99.90
9389;DHT22;4734;52.778;6.798;2023-05-10T03:33:19;14.00;99.90
9389;DHT22;4734;52.778;6.798;2023-05-10T03:36:04;14.10;99.90
9389;DHT22;4734;52.778;6.798;2023-05-10T03:38:50;14.00;99.90
9389;DHT22;4734;52.778;6.798;2023-05-10T03:41:36;14.00;99.90
9389;DHT22;4734;52.778;6.798;2023-05-10T03:44:21;14.00;99.90
9389;DHT22;4734;52.778;6.798;2023-05-10T03:47:08;14.00;99.90
9389;DHT22;4734;52.778;6.798;2023-05-10T03:49:53;14.00;99.90
9389;DHT22;4734;52.778;6.798;2023-05-10T03:52:39;14.00;99.90
9389;DHT22;4734;52.778;6.798;2023-05-10T03:55:24;14.00;99.90
9389;DHT22;4734;52.778;6.798;2023-05-10T03:58:11;14.00;99.90
9389;DHT22;4734;52.778;6.798;2023-05-10T04:00:56;14.00;99.90
9389;DHT22;4734;52.778;6.798;2023-05-10T04:03:43;13.90;99.90
9389;DHT22;4734;52.778;6.798;2023-05-10T04:06:28;13.90;99.90
9389;DHT22;4734;52.778;6.798;2023-05-10T04:09:14;14.00;99.90
9389;DHT22;4734;52.778;6.798;2023-05-10T04:12:00;13.90;99.90
9389;DHT22;4734;52.778;6.798;2023-05-10T04:14:46;14.00;99.90
9389;DHT22;4734;52.778;6.798;2023-05-10T04:17:32;13.90;99.90
9389;DHT22;4734;52.778;6.798;2023-05-10T04:20:19;13.90;99.90
9389;DHT22;4734;52.778;6.798;2023-05-10T04:23:04;13.90;99.90
9389;DHT22;4734;52.778;6.798;2023-05-10T04:25:50;13.90;99.90
9389;DHT22;4734;52.778;6.798;2023-05-10T04:28:36;13.90;99.90
9389;DHT22;4734;52.778;6.798;2023-05-10T04:31:21;13.90;99.90
9389;DHT22;4734;52.778;6.798;2023-05-10T04:34:07;13.90;99.90
9389;DHT22;4734;52.778;6.798;2023-05-10T04:36:54;13.90;99.90
9389;DHT22;4734;52.778;6.798;2023-05-10T04:39:39;13.90;99.90
9389;DHT22;4734;52.778;6.798;2023-05-10T04:42:25;13.90;99.90
9389;DHT22;4734;52.778;6.798;2023-05-10T04:45:11;13.90;99.90
9389;DHT22;4734;52.778;6.798;2023-05-10T04:47:56;13.90;99.90
9389;DHT22;4734;52.778;6.798;2023-05-10T04:50:42;13.90;99.90
9389;DHT22;4734;52.778;6.798;2023-05-10T04:53:29;13.90;99.90
9389;DHT22;4734;52.778;6.798;2023-05-10T04:56:14;13.90;99.90
9389;DHT22;4734;52.778;6.798;2023-05-10T04:59:00;13.90;99.90
9389;DHT22;4734;52.778;6.798;2023-05-10T05:01:46;13.90;99.90
9389;DHT22;4734;52.778;6.798;2023-05-10T05:04:32;13.90;99.90
9389;DHT22;4734;52.778;6.798;2023-05-10T05:07:18;13.90;99.90
9389;DHT22;4734;52.778;6.798;2023-05-10T05:10:06;13.80;99.90
9389;DHT22;4734;52.778;6.798;2023-05-10T05:12:51;13.90;99.90
9389;DHT22;4734;52.778;6.798;2023-05-10T05:15:37;13.90;99.90
9389;DHT22;4734;52.778;6.798;2023-05-10T05:18:22;13.90;99.90
9389;DHT22;4734;52.778;6.798;2023-05-10T05:21:14;13.80;99.90
9389;DHT22;4734;52.778;6.798;2023-05-10T05:24:00;13.90;99.90
9389;DHT22;4734;52.778;6.798;2023-05-10T05:26:46;13.90;99.90
9389;DHT22;4734;52.778;6.798;2023-05-10T05:29:32;13.90;99.90
9389;DHT22;4734;52.778;6.798;2023-05-10T05:32:17;13.90;99.90
9389;DHT22;4734;52.778;6.798;2023-05-10T05:35:04;13.90;99.90
9389;DHT22;4734;52.778;6.798;2023-05-10T05:37:50;13.90;99.90
9389;DHT22;4734;52.778;6.798;2023-05-10T05:40:35;13.80;99.90
9389;DHT22;4734;52.778;6.798;2023-05-10T05:43:22;13.90;99.90
9389;DHT22;4734;52.778;6.798;2023-05-10T05:46:08;13.80;99.90
9389;DHT22;4734;52.778;6.798;2023-05-10T05:48:53;13.90;99.90
9389;DHT22;4734;52.778;6.798;2023-05-10T05:51:39;13.80;99.90
9389;DHT22;4734;52.778;6.798;2023-05-10T05:54:24;13.80;99.90
9389;DHT22;4734;52.778;6.798;2023-05-10T05:57:16;13.90;99.90
9389;DHT22;4734;52.778;6.798;2023-05-10T06:00:03;13.80;99.90
9389;DHT22;4734;52.778;6.798;2023-05-10T06:02:49;13.80;99.90
9389;DHT22;4734;52.778;6.798;2023-05-10T06:05:34;13.90;99.90
9389;DHT22;4734;52.778;6.798;2023-05-10T06:08:20;13.90;99.90
9389;DHT22;4734;52.778;6.798;2023-05-10T06:11:05;13.90;99.90
9389;DHT22;4734;52.778;6.798;2023-05-10T06:13:51;13.90;99.90
9389;DHT22;4734;52.778;6.798;2023-05-10T06:16:38;13.90;99.90
9389;DHT22;4734;52.778;6.798;2023-05-10T06:19:23;13.90;99.90
9389;DHT22;4734;52.778;6.798;2023-05-10T06:22:10;13.90;99.90
9389;DHT22;4734;52.778;6.798;2023-05-10T06:24:55;13.90;99.90
9389;DHT22;4734;52.778;6.798;2023-05-10T06:27:41;13.80;99.90
9389;DHT22;4734;52.778;6.798;2023-05-10T06:30:26;13.90;99.90
9389;DHT22;4734;52.778;6.798;2023-05-10T06:33:13;13.90;99.90
9389;DHT22;4734;52.778;6.798;2023-05-10T06:36:00;13.90;99.90
9389;DHT22;4734;52.778;6.798;2023-05-10T06:38:45;13.90;99.90
9389;DHT22;4734;52.778;6.798;2023-05-10T06:41:31;13.90;99.90
9389;DHT22;4734;52.778;6.798;2023-05-10T06:44:16;13.90;99.90
9389;DHT22;4734;52.778;6.798;2023-05-10T06:47:02;13.90;99.90
9389;DHT22;4734;52.778;6.798;2023-05-10T06:49:49;14.00;99.90
9389;DHT22;4734;52.778;6.798;2023-05-10T06:52:34;13.90;99.90
9389;DHT22;4734;52.778;6.798;2023-05-10T06:55:20;14.00;99.90
9389;DHT22;4734;52.778;6.798;2023-05-10T06:58:06;14.00;99.90
9389;DHT22;4734;52.778;6.798;2023-05-10T07:00:51;14.00;99.90
9389;DHT22;4734;52.778;6.798;2023-05-10T07:03:37;14.00;99.90
9389;DHT22;4734;52.778;6.798;2023-05-10T07:06:23;14.10;99.90
9389;DHT22;4734;52.778;6.798;2023-05-10T07:09:09;14.00;99.90
9389;DHT22;4734;52.778;6.798;2023-05-10T07:11:54;14.10;99.90
9389;DHT22;4734;52.778;6.798;2023-05-10T07:14:41;14.10;99.90
9389;DHT22;4734;52.778;6.798;2023-05-10T07:17:27;14.10;99.90
9389;DHT22;4734;52.778;6.798;2023-05-10T07:20:12;14.10;99.90
9389;DHT22;4734;52.778;6.798;2023-05-10T07:22:59;14.10;99.90
9389;DHT22;4734;52.778;6.798;2023-05-10T07:25:45;14.10;99.90
9389;DHT22;4734;52.778;6.798;2023-05-10T07:28:31;14.20;99.90
9389;DHT22;4734;52.778;6.798;2023-05-10T07:31:16;14.10;99.90
9389;DHT22;4734;52.778;6.798;2023-05-10T07:34:01;14.20;99.90
9389;DHT22;4734;52.778;6.798;2023-05-10T07:36:47;14.20;99.90
9389;DHT22;4734;52.778;6.798;2023-05-10T07:39:34;14.20;99.90
9389;DHT22;4734;52.778;6.798;2023-05-10T07:42:20;14.20;99.90
9389;DHT22;4734;52.778;6.798;2023-05-10T07:45:06;14.20;99.90
9389;DHT22;4734;52.778;6.798;2023-05-10T07:47:53;14.20;99.90
9389;DHT22;4734;52.778;6.798;2023-05-10T07:50:39;14.20;99.90
9389;DHT22;4734;52.778;6.798;2023-05-10T07:53:26;14.20;99.90
9389;DHT22;4734;52.778;6.798;2023-05-10T07:56:24;14.20;99.90
9389;DHT22;4734;52.778;6.798;2023-05-10T07:59:15;14.20;99.90
9389;DHT22;4734;52.778;6.798;2023-05-10T08:02:00;14.30;99.90
9389;DHT22;4734;52.778;6.798;2023-05-10T08:04:46;14.30;99.90
9389;DHT22;4734;52.778;6.798;2023-05-10T08:07:32;14.30;99.90
9389;DHT22;4734;52.778;6.798;2023-05-10T08:10:17;14.30;99.90
9389;DHT22;4734;52.778;6.798;2023-05-10T08:13:04;14.30;99.90
9389;DHT22;4734;52.778;6.798;2023-05-10T08:15:50;14.40;99.90
9389;DHT22;4734;52.778;6.798;2023-05-10T08:18:37;14.40;99.90
9389;DHT22;4734;52.778;6.798;2023-05-10T08:21:22;14.40;99.90
9389;DHT22;4734;52.778;6.798;2023-05-10T08:24:07;14.40;99.90
9389;DHT22;4734;52.778;6.798;2023-05-10T08:26:53;14.50;99.90
9389;DHT22;4734;52.778;6.798;2023-05-10T08:29:40;14.50;99.90
9389;DHT22;4734;52.778;6.798;2023-05-10T08:32:26;14.50;99.90
9389;DHT22;4734;52.778;6.798;2023-05-10T08:35:11;14.50;99.90
9389;DHT22;4734;52.778;6.798;2023-05-10T08:37:57;14.60;99.90
9389;DHT22;4734;52.778;6.798;2023-05-10T08:40:43;14.60;99.90
9389;DHT22;4734;52.778;6.798;2023-05-10T08:43:29;14.60;99.90
9389;DHT22;4734;52.778;6.798;2023-05-10T08:46:18;14.60;99.90
9389;DHT22;4734;52.778;6.798;2023-05-10T08:49:04;14.60;99.90
9389;DHT22;4734;52.778;6.798;2023-05-10T08:51:54;14.60;99.90
9389;DHT22;4734;52.778;6.798;2023-05-10T08:54:40;14.60;99.90
9389;DHT22;4734;52.778;6.798;2023-05-10T08:57:26;14.70;99.90
9389;DHT22;4734;52.778;6.798;2023-05-10T09:00:13;14.70;99.90
9389;DHT22;4734;52.778;6.798;2023-05-10T09:03:02;14.70;99.90
9389;DHT22;4734;52.778;6.798;2023-05-10T09:05:48;14.70;99.90
9389;DHT22;4734;52.778;6.798;2023-05-10T09:08:34;14.70;99.90
9389;DHT22;4734;52.778;6.798;2023-05-10T09:11:21;14.70;99.90
9389;DHT22;4734;52.778;6.798;2023-05-10T09:14:07;14.70;99.90
9389;DHT22;4734;52.778;6.798;2023-05-10T09:16:54;14.80;99.90
9389;DHT22;4734;52.778;6.798;2023-05-10T09:19:41;14.80;99.90
9389;DHT22;4734;52.778;6.798;2023-05-10T09:22:27;14.80;99.90
9389;DHT22;4734;52.778;6.798;2023-05-10T09:25:14;14.80;99.90
9389;DHT22;4734;52.778;6.798;2023-05-10T09:27:59;14.80;99.90
9389;DHT22;4734;52.778;6.798;2023-05-10T09:30:53;14.90;99.90
9389;DHT22;4734;52.778;6.798;2023-05-10T09:33:44;14.90;99.90
9389;DHT22;4734;52.778;6.798;2023-05-10T09:36:30;14.90;99.90
9389;DHT22;4734;52.778;6.798;2023-05-10T09:39:16;14.90;99.90
9389;DHT22;4734;52.778;6.798;2023-05-10T09:42:03;14.90;99.90
9389;DHT22;4734;52.778;6.798;2023-05-10T09:44:49;14.90;99.90
9389;DHT22;4734;52.778;6.798;2023-05-10T09:47:35;14.90;99.90
9389;DHT22;4734;52.778;6.798;2023-05-10T09:50:21;15.00;99.90
9389;DHT22;4734;52.778;6.798;2023-05-10T09:53:08;15.00;99.90
9389;DHT22;4734;52.778;6.798;2023-05-10T09:55:53;15.00;99.90
9389;DHT22;4734;52.778;6.798;2023-05-10T09:58:39;15.10;99.90
9389;DHT22;4734;52.778;6.798;2023-05-10T10:01:26;15.10;99.90
9389;DHT22;4734;52.778;6.798;2023-05-10T10:04:12;15.20;99.90
9389;DHT22;4734;52.778;6.798;2023-05-10T10:07:08;15.20;99.90
9389;DHT22;4734;52.778;6.798;2023-05-10T10:12:41;15.30;99.90
9389;DHT22;4734;52.778;6.798;2023-05-10T10:15:29;15.30;99.90
9389;DHT22;4734;52.778;6.798;2023-05-10T10:18:16;15.40;99.90
9389;DHT22;4734;52.778;6.798;2023-05-10T10:21:03;15.40;99.90
9389;DHT22;4734;52.778;6.798;2023-05-10T10:23:49;15.50;99.90
9389;DHT22;4734;52.778;6.798;2023-05-10T10:26:37;15.50;99.90
9389;DHT22;4734;52.778;6.798;2023-05-10T10:29:26;15.50;99.90
9389;DHT22;4734;52.778;6.798;2023-05-10T10:32:22;15.50;99.90
9389;DHT22;4734;52.778;6.798;2023-05-10T10:35:09;15.60;99.90
9389;DHT22;4734;52.778;6.798;2023-05-10T10:37:55;15.60;99.90
9389;DHT22;4734;52.778;6.798;2023-05-10T10:40:41;15.60;99.90
9389;DHT22;4734;52.778;6.798;2023-05-10T10:43:41;15.70;99.90
9389;DHT22;4734;52.778;6.798;2023-05-10T10:46:27;15.70;99.90
9389;DHT22;4734;52.778;6.798;2023-05-10T10:49:14;15.70;99.90
9389;DHT22;4734;52.778;6.798;2023-05-10T10:52:22;15.70;99.90
9389;DHT22;4734;52.778;6.798;2023-05-10T10:55:09;15.80;99.90
9389;DHT22;4734;52.778;6.798;2023-05-10T10:57:56;15.80;99.90
9389;DHT22;4734;52.778;6.798;2023-05-10T11:00:47;15.80;99.90
9389;DHT22;4734;52.778;6.798;2023-05-10T11:03:32;15.80;99.90
9389;DHT22;4734;52.778;6.798;2023-05-10T11:06:28;15.80;99.90
9389;DHT22;4734;52.778;6.798;2023-05-10T11:09:15;15.80;99.90
9389;DHT22;4734;52.778;6.798;2023-05-10T11:12:08;15.80;99.90
9389;DHT22;4734;52.778;6.798;2023-05-10T11:14:57;15.80;99.90
9389;DHT22;4734;52.778;6.798;2023-05-10T11:17:44;15.80;99.90
9389;DHT22;4734;52.778;6.798;2023-05-10T11:20:39;15.80;99.90
9389;DHT22;4734;52.778;6.798;2023-05-10T11:23:29;15.90;99.90
9389;DHT22;4734;52.778;6.798;2023-05-10T11:26:15;15.90;99.90
9389;DHT22;4734;52.778;6.798;2023-05-10T11:29:01;15.90;99.90
9389;DHT22;4734;52.778;6.798;2023-05-10T11:31:50;15.90;99.90
9389;DHT22;4734;52.778;6.798;2023-05-10T11:34:37;16.00;99.90
9389;DHT22;4734;52.778;6.798;2023-05-10T11:37:23;16.00;99.90
9389;DHT22;4734;52.778;6.798;2023-05-10T11:40:09;16.00;99.90
9389;DHT22;4734;52.778;6.798;2023-05-10T11:42:56;16.10;99.90
9389;DHT22;4734;52.778;6.798;2023-05-10T11:45:41;16.10;99.90
9389;DHT22;4734;52.778;6.798;2023-05-10T11:48:26;16.10;99.90
9389;DHT22;4734;52.778;6.798;2023-05-10T11:51:13;16.10;99.90
9389;DHT22;4734;52.778;6.798;2023-05-10T11:53:59;16.20;99.90
9389;DHT22;4734;52.778;6.798;2023-05-10T11:56:44;16.20;99.90
9389;DHT22;4734;52.778;6.798;2023-05-10T11:59:30;16.20;99.90
9389;DHT22;4734;52.778;6.798;2023-05-10T12:02:15;16.30;99.90
9389;DHT22;4734;52.778;6.798;2023-05-10T12:05:02;16.30;99.90
9389;DHT22;4734;52.778;6.798;2023-05-10T12:07:49;16.30;99.90
9389;DHT22;4734;52.778;6.798;2023-05-10T12:10:34;16.40;99.90
9389;DHT22;4734;52.778;6.798;2023-05-10T12:13:20;16.40;99.90
9389;DHT22;4734;52.778;6.798;2023-05-10T12:16:13;16.40;99.90
9389;DHT22;4734;52.778;6.798;2023-05-10T12:19:00;16.40;99.90
9389;DHT22;4734;52.778;6.798;2023-05-10T12:21:45;16.50;99.90
9389;DHT22;4734;52.778;6.798;2023-05-10T12:24:33;16.50;99.90
9389;DHT22;4734;52.778;6.798;2023-05-10T12:27:19;16.50;99.90
9389;DHT22;4734;52.778;6.798;2023-05-10T12:30:05;16.50;99.90
9389;DHT22;4734;52.778;6.798;2023-05-10T12:32:51;16.50;99.90
9389;DHT22;4734;52.778;6.798;2023-05-10T12:35:44;16.60;99.90
9389;DHT22;4734;52.778;6.798;2023-05-10T12:38:33;16.60;99.90
9389;DHT22;4734;52.778;6.798;2023-05-10T12:41:23;16.60;99.90
9389;DHT22;4734;52.778;6.798;2023-05-10T12:44:09;16.60;99.90
9389;DHT22;4734;52.778;6.798;2023-05-10T12:46:54;16.70;99.90
9389;DHT22;4734;52.778;6.798;2023-05-10T12:49:40;16.70;99.90
9389;DHT22;4734;52.778;6.798;2023-05-10T12:52:26;16.70;99.90
9389;DHT22;4734;52.778;6.798;2023-05-10T12:55:11;16.70;99.90
9389;DHT22;4734;52.778;6.798;2023-05-10T12:57:58;16.70;99.90
9389;DHT22;4734;52.778;6.798;2023-05-10T13:00:44;16.80;99.90
9389;DHT22;4734;52.778;6.798;2023-05-10T13:03:29;16.80;99.90
9389;DHT22;4734;52.778;6.798;2023-05-10T13:06:15;16.80;99.90
9389;DHT22;4734;52.778;6.798;2023-05-10T13:09:00;16.80;99.90
9389;DHT22;4734;52.778;6.798;2023-05-10T13:11:46;16.90;99.90
9389;DHT22;4734;52.778;6.798;2023-05-10T13:14:34;16.90;99.90
9389;DHT22;4734;52.778;6.798;2023-05-10T13:17:19;17.00;99.90
9389;DHT22;4734;52.778;6.798;2023-05-10T13:20:05;17.00;99.90
9389;DHT22;4734;52.778;6.798;2023-05-10T13:22:51;17.00;99.90
9389;DHT22;4734;52.778;6.798;2023-05-10T13:25:37;17.00;99.90
9389;DHT22;4734;52.778;6.798;2023-05-10T13:28:22;17.00;99.90
9389;DHT22;4734;52.778;6.798;2023-05-10T13:31:10;17.10;99.90
9389;DHT22;4734;52.778;6.798;2023-05-10T13:33:56;17.10;99.90
9389;DHT22;4734;52.778;6.798;2023-05-10T13:36:42;17.10;99.90
9389;DHT22;4734;52.778;6.798;2023-05-10T13:39:27;17.10;99.90
9389;DHT22;4734;52.778;6.798;2023-05-10T13:42:15;17.10;99.90
9389;DHT22;4734;52.778;6.798;2023-05-10T13:45:03;17.20;99.90
9389;DHT22;4734;52.778;6.798;2023-05-10T13:47:50;17.20;99.90
9389;DHT22;4734;52.778;6.798;2023-05-10T13:50:36;17.20;99.90
9389;DHT22;4734;52.778;6.798;2023-05-10T13:53:22;17.20;99.90
9389;DHT22;4734;52.778;6.798;2023-05-10T13:56:07;17.20;99.90
9389;DHT22;4734;52.778;6.798;2023-05-10T13:58:53;17.20;99.90
9389;DHT22;4734;52.778;6.798;2023-05-10T14:01:38;17.20;99.90
9389;DHT22;4734;52.778;6.798;2023-05-10T14:04:25;17.20;99.90
9389;DHT22;4734;52.778;6.798;2023-05-10T14:07:11;17.20;99.90
9389;DHT22;4734;52.778;6.798;2023-05-10T14:09:58;17.30;99.90
9389;DHT22;4734;52.778;6.798;2023-05-10T14:12:45;17.30;99.90
9389;DHT22;4734;52.778;6.798;2023-05-10T14:15:31;17.40;99.90
9389;DHT22;4734;52.778;6.798;2023-05-10T14:18:16;17.40;99.90
9389;DHT22;4734;52.778;6.798;2023-05-10T14:21:03;17.40;99.90
9389;DHT22;4734;52.778;6.798;2023-05-10T14:23:49;17.50;99.90
9389;DHT22;4734;52.778;6.798;2023-05-10T14:26:35;17.50;99.90
9389;DHT22;4734;52.778;6.798;2023-05-10T14:29:20;17.50;99.90
9389;DHT22;4734;52.778;6.798;2023-05-10T14:32:06;17.50;99.90
9389;DHT22;4734;52.778;6.798;2023-05-10T14:34:51;17.60;99.90
9389;DHT22;4734;52.778;6.798;2023-05-10T14:37:38;17.60;99.90
9389;DHT22;4734;52.778;6.798;2023-05-10T14:40:24;17.60;99.90
9389;DHT22;4734;52.778;6.798;2023-05-10T14:43:10;17.70;99.90
9389;DHT22;4734;52.778;6.798;2023-05-10T14:45:55;17.70;99.90
9389;DHT22;4734;52.778;6.798;2023-05-10T14:48:41;17.70;99.90
9389;DHT22;4734;52.778;6.798;2023-05-10T14:51:26;17.80;99.90
9389;DHT22;4734;52.778;6.798;2023-05-10T14:54:13;17.80;99.90
9389;DHT22;4734;52.778;6.798;2023-05-10T14:56:59;17.80;99.90
9389;DHT22;4734;52.778;6.798;2023-05-10T14:59:45;17.80;99.90
9389;DHT22;4734;52.778;6.798;2023-05-10T15:02:31;17.90;99.90
9389;DHT22;4734;52.778;6.798;2023-05-10T15:05:16;17.90;99.90
9389;DHT22;4734;52.778;6.798;2023-05-10T15:08:03;17.90;99.90
9389;DHT22;4734;52.778;6.798;2023-05-10T15:10:51;17.90;99.90
9389;DHT22;4734;52.778;6.798;2023-05-10T15:13:39;17.90;99.90
9389;DHT22;4734;52.778;6.798;2023-05-10T15:16:24;17.90;99.90
9389;DHT22;4734;52.778;6.798;2023-05-10T15:19:10;17.90;99.90
9389;DHT22;4734;52.778;6.798;2023-05-10T15:21:56;18.00;99.90
9389;DHT22;4734;52.778;6.798;2023-05-10T15:24:44;17.90;99.90
9389;DHT22;4734;52.778;6.798;2023-05-10T15:27:37;18.00;99.90
9389;DHT22;4734;52.778;6.798;2023-05-10T15:30:25;18.00;99.90
9389;DHT22;4734;52.778;6.798;2023-05-10T15:33:10;18.00;99.90
9389;DHT22;4734;52.778;6.798;2023-05-10T15:35:56;17.90;99.90
9389;DHT22;4734;52.778;6.798;2023-05-10T15:38:41;18.00;99.90
9389;DHT22;4734;52.778;6.798;2023-05-10T15:41:27;18.00;99.90
9389;DHT22;4734;52.778;6.798;2023-05-10T15:44:14;18.00;99.90
9389;DHT22;4734;52.778;6.798;2023-05-10T15:46:59;18.00;99.90
9389;DHT22;4734;52.778;6.798;2023-05-10T15:49:45;18.00;99.90
9389;DHT22;4734;52.778;6.798;2023-05-10T15:52:30;18.00;99.90
9389;DHT22;4734;52.778;6.798;2023-05-10T15:55:16;17.90;99.90
9389;DHT22;4734;52.778;6.798;2023-05-10T15:58:01;17.90;99.90
9389;DHT22;4734;52.778;6.798;2023-05-10T16:00:48;17.90;99.90
9389;DHT22;4734;52.778;6.798;2023-05-10T16:03:34;17.90;99.90
9389;DHT22;4734;52.778;6.798;2023-05-10T16:06:19;17.90;99.90
9389;DHT22;4734;52.778;6.798;2023-05-10T16:09:05;17.80;99.90
9389;DHT22;4734;52.778;6.798;2023-05-10T16:11:50;17.80;99.90
9389;DHT22;4734;52.778;6.798;2023-05-10T16:14:36;17.80;99.90
9389;DHT22;4734;52.778;6.798;2023-05-10T16:17:23;17.80;99.90
9389;DHT22;4734;52.778;6.798;2023-05-10T16:20:09;17.70;99.90
9389;DHT22;4734;52.778;6.798;2023-05-10T16:22:55;17.70;99.90
9389;DHT22;4734;52.778;6.798;2023-05-10T16:25:40;17.70;99.90
9389;DHT22;4734;52.778;6.798;2023-05-10T16:28:25;17.60;99.90
9389;DHT22;4734;52.778;6.798;2023-05-10T16:31:11;17.70;99.90
9389;DHT22;4734;52.778;6.798;2023-05-10T16:33:58;17.60;99.90
9389;DHT22;4734;52.778;6.798;2023-05-10T16:36:43;17.60;99.90
9389;DHT22;4734;52.778;6.798;2023-05-10T16:39:30;17.60;99.90
9389;DHT22;4734;52.778;6.798;2023-05-10T16:42:15;17.50;99.90
9389;DHT22;4734;52.778;6.798;2023-05-10T16:45:00;17.50;99.90
9389;DHT22;4734;52.778;6.798;2023-05-10T16:47:51;17.50;99.90
9389;DHT22;4734;52.778;6.798;2023-05-10T16:50:42;17.50;99.90
9389;DHT22;4734;52.778;6.798;2023-05-10T16:53:27;17.50;99.90
9389;DHT22;4734;52.778;6.798;2023-05-10T16:56:14;17.50;99.90
9389;DHT22;4734;52.778;6.798;2023-05-10T16:59:01;17.50;99.90
9389;DHT22;4734;52.778;6.798;2023-05-10T17:01:46;17.50;99.90
9389;DHT22;4734;52.778;6.798;2023-05-10T17:04:32;17.40;99.90
9389;DHT22;4734;52.778;6.798;2023-05-10T17:07:18;17.40;99.90
9389;DHT22;4734;52.778;6.798;2023-05-10T17:10:05;17.40;99.90
9389;DHT22;4734;52.778;6.798;2023-05-10T17:12:51;17.40;99.90
9389;DHT22;4734;52.778;6.798;2023-05-10T17:15:36;17.40;99.90
9389;DHT22;4734;52.778;6.798;2023-05-10T17:18:22;17.30;99.90
9389;DHT22;4734;52.778;6.798;2023-05-10T17:21:08;17.30;99.90
9389;DHT22;4734;52.778;6.798;2023-05-10T17:23:55;17.30;99.90
9389;DHT22;4734;52.778;6.798;2023-05-10T17:26:40;17.30;99.90
9389;DHT22;4734;52.778;6.798;2023-05-10T17:29:26;17.30;99.90
9389;DHT22;4734;52.778;6.798;2023-05-10T17:32:12;17.30;99.90
9389;DHT22;4734;52.778;6.798;2023-05-10T17:34:57;17.30;99.90
9389;DHT22;4734;52.778;6.798;2023-05-10T17:37:43;17.30;99.90
9389;DHT22;4734;52.778;6.798;2023-05-10T17:40:30;17.20;99.90
9389;DHT22;4734;52.778;6.798;2023-05-10T17:43:15;17.20;99.90
9389;DHT22;4734;52.778;6.798;2023-05-10T17:46:01;17.20;99.90
9389;DHT22;4734;52.778;6.798;2023-05-10T17:48:46;17.20;99.90
9389;DHT22;4734;52.778;6.798;2023-05-10T17:51:32;17.20;99.90
9389;DHT22;4734;52.778;6.798;2023-05-10T17:54:18;17.20;99.90
9389;DHT22;4734;52.778;6.798;2023-05-10T17:57:04;17.10;99.90
9389;DHT22;4734;52.778;6.798;2023-05-10T17:59:50;17.10;99.90
9389;DHT22;4734;52.778;6.798;2023-05-10T18:02:35;17.10;99.90
9389;DHT22;4734;52.778;6.798;2023-05-10T18:05:21;17.00;99.90
9389;DHT22;4734;52.778;6.798;2023-05-10T18:08:06;17.00;99.90
9389;DHT22;4734;52.778;6.798;2023-05-10T18:10:52;17.00;99.90
9389;DHT22;4734;52.778;6.798;2023-05-10T18:13:39;17.00;99.90
9389;DHT22;4734;52.778;6.798;2023-05-10T18:16:25;17.00;99.90
9389;DHT22;4734;52.778;6.798;2023-05-10T18:19:10;17.00;99.90